createdAt,value
2022-10-22T00:04:57.251Z,11.30
2022-10-22T00:10:00.723Z,11.30
2022-10-22T00:15:05.024Z,11.40
2022-10-22T00:20:10.932Z,11.40
2022-10-22T00:25:14.298Z,11.40
2022-10-22T00:30:17.816Z,11.60
2022-10-22T00:35:22.550Z,11.60
2022-10-22T00:40:25.885Z,11.40
2022-10-22T00:45:29.397Z,11.50
2022-10-22T00:50:36.741Z,11.60
2022-10-22T00:55:41.329Z,11.40
2022-10-22T01:00:44.934Z,11.50
2022-10-22T01:05:55.489Z,11.40
2022-10-22T01:11:09.165Z,11.40
2022-10-22T01:16:16.998Z,11.30
2022-10-22T01:21:31.783Z,11.20
2022-10-22T01:26:46.170Z,11.20
2022-10-22T01:31:56.140Z,11.30
2022-10-22T01:37:00.494Z,11.20
2022-10-22T01:42:03.899Z,11.20
2022-10-22T01:47:18.345Z,11.20
2022-10-22T01:52:31.376Z,11.20
2022-10-22T01:57:43.029Z,11.10
2022-10-22T02:02:57.273Z,11.10
2022-10-22T02:08:06.912Z,11.20
2022-10-22T02:13:14.528Z,11.20
2022-10-22T02:18:20.616Z,11.20
2022-10-22T02:23:24.427Z,11.20
2022-10-22T02:28:34.625Z,11.00
2022-10-22T02:33:57.904Z,11.10
2022-10-22T02:39:02.389Z,11.20
2022-10-22T02:44:10.203Z,11.20
2022-10-22T02:49:15.164Z,11.10
2022-10-22T02:54:18.911Z,11.10
2022-10-22T02:59:22.413Z,11.10
2022-10-22T03:04:27.169Z,11.20
2022-10-22T03:09:30.698Z,11.40
2022-10-22T03:14:33.992Z,11.40
2022-10-22T03:19:38.780Z,11.40
2022-10-22T03:24:45.776Z,11.30
2022-10-22T03:29:52.465Z,11.30
2022-10-22T03:34:57.286Z,11.50
2022-10-22T03:40:01.084Z,11.60
2022-10-22T03:45:04.702Z,11.50
2022-10-22T03:50:10.974Z,11.50
2022-10-22T03:55:14.309Z,11.50
2022-10-22T04:00:17.932Z,11.30
2022-10-22T04:05:22.628Z,11.20
2022-10-22T04:10:25.966Z,11.20
2022-10-22T04:15:29.338Z,11.40
2022-10-22T04:20:34.008Z,11.40
2022-10-22T04:25:37.499Z,11.40
2022-10-22T04:30:40.821Z,11.60
2022-10-22T04:35:45.710Z,11.70
2022-10-22T04:40:48.983Z,11.60
2022-10-22T04:45:52.308Z,11.60
2022-10-22T04:50:58.349Z,11.60
2022-10-22T04:56:09.605Z,11.70
2022-10-22T05:01:14.476Z,11.60
2022-10-22T05:06:20.898Z,11.50
2022-10-22T05:11:27.939Z,11.00
2022-10-22T05:16:32.194Z,11.40
2022-10-22T05:21:38.709Z,11.40
2022-10-22T05:26:42.020Z,11.40
2022-10-22T05:31:45.541Z,11.50
2022-10-22T05:36:50.318Z,11.40
2022-10-22T05:41:54.009Z,11.40
2022-10-22T05:46:57.287Z,11.50
2022-10-22T05:52:01.994Z,11.60
2022-10-22T05:57:05.459Z,11.60
2022-10-22T06:02:10.759Z,11.70
2022-10-22T06:07:17.098Z,11.80
2022-10-22T06:12:20.411Z,11.90
2022-10-22T06:17:23.676Z,12.00
2022-10-22T06:22:28.387Z,12.10
2022-10-22T06:27:31.700Z,12.30
2022-10-22T06:32:34.964Z,12.20
2022-10-22T06:37:39.981Z,12.10
2022-10-22T06:42:43.865Z,12.10
2022-10-22T06:47:47.768Z,12.50
2022-10-22T06:52:52.432Z,12.00
2022-10-22T06:57:56.897Z,12.00
2022-10-22T07:03:00.158Z,11.80
2022-10-22T07:08:05.020Z,16.10
2022-10-22T07:13:08.378Z,12.40
2022-10-22T07:18:11.674Z,12.50
2022-10-22T07:23:16.451Z,12.60
2022-10-22T07:28:20.369Z,12.60
2022-10-22T07:33:23.680Z,12.60
2022-10-22T07:38:28.650Z,12.60
2022-10-22T07:43:32.010Z,12.70
2022-10-22T07:48:35.469Z,12.80
2022-10-22T07:53:40.290Z,12.90
2022-10-22T07:58:43.552Z,12.90
2022-10-22T08:03:46.823Z,12.90
2022-10-22T08:08:51.609Z,12.90
2022-10-22T08:13:55.118Z,13.10
2022-10-22T08:18:58.489Z,13.30
2022-10-22T08:24:03.272Z,13.30
2022-10-22T08:29:06.756Z,13.40
2022-10-22T08:34:10.047Z,13.20
2022-10-22T08:39:14.817Z,13.80
2022-10-22T08:44:44.468Z,14.10
2022-10-22T08:49:48.021Z,14.30
2022-10-22T08:54:55.841Z,14.00
2022-10-22T09:00:06.476Z,13.80
2022-10-22T09:05:33.000Z,13.60
2022-10-22T09:10:41.349Z,13.70
2022-10-22T09:15:46.550Z,13.90
2022-10-22T09:20:55.802Z,13.90
2022-10-22T09:26:01.425Z,13.80
2022-10-22T09:31:12.336Z,13.80
2022-10-22T09:36:17.983Z,13.70
2022-10-22T09:41:29.799Z,13.60
2022-10-22T09:46:44.068Z,13.70
2022-10-22T09:51:52.261Z,13.70
2022-10-22T09:56:59.285Z,13.90
2022-10-22T10:02:19.665Z,14.10
2022-10-22T10:07:25.669Z,14.10
2022-10-22T10:12:42.781Z,14.30
2022-10-22T10:17:55.736Z,14.10
2022-10-22T10:23:08.973Z,14.10
2022-10-22T10:28:24.708Z,14.20
2022-10-22T10:33:40.218Z,14.20
2022-10-22T10:38:52.525Z,14.20
2022-10-22T10:44:14.477Z,14.60
2022-10-22T10:49:21.534Z,14.50
2022-10-22T10:54:43.022Z,14.50
2022-10-22T11:00:03.201Z,14.60
2022-10-22T11:05:21.229Z,14.90
2022-10-22T11:10:30.089Z,14.90
2022-10-22T11:15:36.787Z,14.80
2022-10-22T11:20:50.612Z,14.90
2022-10-22T11:25:54.914Z,15.50
2022-10-22T11:31:04.049Z,16.30
2022-10-22T11:36:09.816Z,18.40
2022-10-22T11:41:16.921Z,18.90
2022-10-22T11:46:40.794Z,20.10
2022-10-22T11:51:46.352Z,20.20
2022-10-22T11:56:53.868Z,20.80
2022-10-22T12:01:58.516Z,19.40
2022-10-22T12:07:03.156Z,18.50
2022-10-22T12:12:15.157Z,19.30
2022-10-22T12:17:22.314Z,18.40
2022-10-22T12:22:29.803Z,18.40
2022-10-22T12:27:38.175Z,19.50
2022-10-22T12:32:43.040Z,20.40
2022-10-22T12:37:46.394Z,19.20
2022-10-22T12:42:54.195Z,20.20
2022-10-22T12:48:00.749Z,20.50
2022-10-22T12:53:04.167Z,19.10
2022-10-22T12:58:08.172Z,18.60
2022-10-22T13:03:26.783Z,18.20
2022-10-22T13:08:30.196Z,17.70
2022-10-22T13:13:35.377Z,19.30
2022-10-22T13:18:40.059Z,20.10
2022-10-22T13:23:55.268Z,19.30
2022-10-22T13:29:01.197Z,19.10
2022-10-22T13:34:11.830Z,20.20
2022-10-22T13:39:19.288Z,20.60
2022-10-22T13:44:22.576Z,19.70
2022-10-22T13:49:27.250Z,20.10
2022-10-22T13:54:30.573Z,20.70
2022-10-22T13:59:33.826Z,19.50
2022-10-22T14:04:41.043Z,19.60
2022-10-22T14:09:44.795Z,22.10
2022-10-22T14:14:48.207Z,23.40
2022-10-22T14:19:52.924Z,22.20
2022-10-22T14:24:56.187Z,23.30
2022-10-22T14:29:59.706Z,17.70
2022-10-22T14:35:04.672Z,19.70
2022-10-22T14:40:09.091Z,21.70
2022-10-22T14:45:17.759Z,23.20
2022-10-22T14:50:22.811Z,21.10
2022-10-22T14:55:27.217Z,20.00
2022-10-22T15:00:30.629Z,20.30
2022-10-22T15:05:36.300Z,20.40
2022-10-22T15:10:40.262Z,19.00
2022-10-22T15:15:43.547Z,19.60
2022-10-22T15:20:56.652Z,19.10
2022-10-22T15:25:59.969Z,18.70
2022-10-22T15:31:03.277Z,19.50
2022-10-22T15:36:13.710Z,17.60
2022-10-22T15:41:17.101Z,17.10
2022-10-22T15:46:21.957Z,16.60
2022-10-22T15:51:29.058Z,16.50
2022-10-22T15:56:32.852Z,16.20
2022-10-22T16:01:36.650Z,16.00
2022-10-22T16:06:43.041Z,15.80
2022-10-22T16:11:46.836Z,15.60
2022-10-22T16:16:53.285Z,15.40
2022-10-22T16:21:59.504Z,15.30
2022-10-22T16:27:03.523Z,15.20
2022-10-22T16:32:08.413Z,15.10
2022-10-22T16:37:13.266Z,15.00
2022-10-22T16:42:16.779Z,17.40
2022-10-22T16:47:20.017Z,14.80
2022-10-22T16:52:24.736Z,14.60
2022-10-22T16:57:28.791Z,14.50
2022-10-22T17:02:32.103Z,14.40
2022-10-22T17:07:36.762Z,14.20
2022-10-22T17:12:40.517Z,13.90
2022-10-22T17:17:48.328Z,13.80
2022-10-22T17:22:53.026Z,13.70
2022-10-22T17:27:56.311Z,13.60
2022-10-22T17:32:59.594Z,13.60
2022-10-22T17:38:04.246Z,13.50
2022-10-22T17:43:07.606Z,13.50
2022-10-22T17:48:10.893Z,13.60
2022-10-22T17:53:15.581Z,13.60
2022-10-22T17:58:18.982Z,13.60
2022-10-22T18:03:23.205Z,13.60
2022-10-22T18:08:28.032Z,13.60
2022-10-22T18:13:31.445Z,13.50
2022-10-22T18:18:36.247Z,13.30
2022-10-22T18:23:40.979Z,13.10
2022-10-22T18:28:44.328Z,12.70
2022-10-22T18:33:48.277Z,12.90
2022-10-22T18:38:54.408Z,12.80
2022-10-22T18:43:59.245Z,12.80
2022-10-22T18:49:03.030Z,13.00
2022-10-22T18:54:22.272Z,13.10
2022-10-22T18:59:27.973Z,12.70
2022-10-22T19:04:36.684Z,12.40
2022-10-22T19:09:42.115Z,12.20
2022-10-22T19:14:45.450Z,12.10
2022-10-22T19:19:48.765Z,12.00
2022-10-22T19:24:53.674Z,11.90
2022-10-22T19:29:57.334Z,11.70
2022-10-22T19:35:00.683Z,11.50
2022-10-22T19:40:07.938Z,11.70
2022-10-22T19:45:11.673Z,11.70
2022-10-22T19:50:15.011Z,11.60
2022-10-22T19:55:19.921Z,11.60
2022-10-22T20:00:23.262Z,11.60
2022-10-22T20:05:26.532Z,11.70
2022-10-22T20:10:32.356Z,11.70
2022-10-22T20:15:36.195Z,11.70
2022-10-22T20:20:40.034Z,11.70
2022-10-22T20:25:46.298Z,11.70
2022-10-22T20:30:49.601Z,11.70
2022-10-22T20:36:02.670Z,13.40
2022-10-22T20:41:09.055Z,11.60
2022-10-22T20:46:17.619Z,11.60
2022-10-22T20:51:21.333Z,11.50
2022-10-22T20:56:26.140Z,11.40
2022-10-22T21:01:29.539Z,11.20
2022-10-22T21:06:33.010Z,11.20
2022-10-22T21:11:39.078Z,11.30
2022-10-22T21:16:42.775Z,11.20
2022-10-22T21:21:46.065Z,11.10
2022-10-22T21:26:50.502Z,11.10
2022-10-22T21:31:54.760Z,11.00
2022-10-22T21:36:57.817Z,11.00
2022-10-22T21:42:02.682Z,11.00
2022-10-22T21:47:06.023Z,11.00
2022-10-22T21:52:09.347Z,10.80
2022-10-22T21:57:14.058Z,10.80
2022-10-22T22:02:17.385Z,10.90
2022-10-22T22:07:20.722Z,11.00
2022-10-22T22:12:25.156Z,11.10
2022-10-22T22:17:28.204Z,11.20
2022-10-22T22:22:31.523Z,11.20
2022-10-22T22:27:36.250Z,11.20
2022-10-22T22:32:39.573Z,11.10
2022-10-22T22:37:43.179Z,11.10
2022-10-22T22:42:48.137Z,11.00
2022-10-22T22:47:51.433Z,10.90
2022-10-22T22:52:54.933Z,10.90
2022-10-22T22:57:59.591Z,10.80
2022-10-22T23:03:02.884Z,10.80
2022-10-22T23:08:06.522Z,10.70
2022-10-22T23:13:11.150Z,10.60
2022-10-22T23:18:14.445Z,10.60
2022-10-22T23:23:17.775Z,10.60
2022-10-22T23:28:24.116Z,10.60
2022-10-22T23:38:31.132Z,10.60
2022-10-22T23:43:37.747Z,10.60
2022-10-22T23:48:41.649Z,10.50
2022-10-22T23:53:46.140Z,10.40
2022-10-22T23:58:52.782Z,10.40
